Meteo Giornale » Osservazioni meteo Italia » Palermo-Punta Raisi

ore: 12:20 - Osservazioni Meteo Palermo-Punta Raisi
Lat. 38° 11' N Lon. 13° 6' E Alt. 21 metri s.l.m.

poco_nuvoloso Europe/Rome

18 °C

Poco Nuvoloso

Temp. 24 Ore

16 °C

18 °C

Nord

16.7 Km/h

Dew point 11 °C

Umidità 63 %

Visibilità  10 Km

Il sole sorge alle ore 06:53

Il sole tramonta alle ore 16:53

Data e Ora Cielo e Fenomeni T °C DP °C Um. % Pres. hPa Vis. km Vento km/h
Oggi h: 12:20 poco_nuvoloso Poco Nuvoloso 18 11 63 1020 10 N 16.7
Oggi h: 11:50 poco_nuvoloso Poco Nuvoloso 18 10 59 1020 10 N 14.8
Oggi h: 11:20 poco_nuvoloso Poco Nuvoloso 18 10 59 1020 10 N 14.8
Oggi h: 10:50 poco_nuvoloso Poco Nuvoloso 17 11 67 1020 10 N 16.7
Oggi h: 10:20 poco_nuvoloso Poco Nuvoloso 18 10 59 1020 10 N 11.1
Oggi h: 09:50 poco_nuvoloso Poco Nuvoloso 17 10 63 1020 10 N 14.8
Oggi h: 09:20 nuvoloso Nuvoloso 17 11 67 1019 10 N 14.8
Oggi h: 08:50 nuvoloso Nuvoloso 17 11 67 1019 10 N 20.3
Oggi h: 08:20 nuvoloso Nuvoloso 17 11 67 1019 10 N 18.5
Oggi h: 07:50 molto_nuvoloso Molto Nuvoloso 17 10 63 1018 10 N 14.8
Oggi h: 07:20 nuvoloso Nuvoloso 17 10 63 1018 10 N 13
Oggi h: 06:50 nuvoloso Nuvoloso 17 11 67 0 10 N 16.7
Oggi h: 06:20 poco_nuvoloso Poco Nuvoloso 17 11 67 1016 10 N 16.7
Oggi h: 05:50 poco_nuvoloso Poco Nuvoloso 17 11 67 1016 10 N 22.2
Oggi h: 05:20 nuvoloso Nuvoloso 17 12 72 1016 10 N/NO 22.2
Oggi h: 04:50 nuvoloso Nuvoloso 17 11 67 1016 10 N/NO 24
Oggi h: 04:20 poco_nuvoloso Poco Nuvoloso 17 12 72 1016 10 O/NO 16.7
Oggi h: 03:50 poco_nuvoloso Poco Nuvoloso 17 10 63 1016 10 O/NO 22.2
Oggi h: 03:20 poco_nuvoloso Poco Nuvoloso 17 12 72 1016 10 O 24
Oggi h: 02:50 poco_nuvoloso Poco Nuvoloso 17 12 72 1016 10 O 24
Oggi h: 02:20 poco_nuvoloso Poco Nuvoloso 17 11 67 1016 10 O 24
Oggi h: 01:50 nuvoloso Nuvoloso 17 12 72 1016 10 O 25.9
Oggi h: 01:20 nuvoloso Nuvoloso 17 11 67 1016 10 O 24
Oggi h: 00:50 nuvoloso Nuvoloso 17 11 67 1016 10 O/NO 24
Oggi h: 00:20 nuvoloso Nuvoloso 17 11 67 1016 10 O 25.9
Ieri h: 23:50 nuvoloso Nuvoloso 17 10 63 1016 10 O/NO 29.6
Ieri h: 23:20 molto_nuvoloso Molto Nuvoloso 17 10 63 1016 10 O/NO 29.6
Ieri h: 22:50 molto_nuvoloso Molto Nuvoloso 18 10 59 1016 10 O/NO 25.9
Ieri h: 22:20 molto_nuvoloso Molto Nuvoloso 17 11 67 1016 10 O 25.9
Ieri h: 21:50 nuvoloso Nuvoloso 17 11 67 1016 10 O 31.5
Ieri h: 21:20 nuvoloso Nuvoloso 17 11 67 1016 10 O 33.3
Ieri h: 20:50 nuvoloso Nuvoloso 17 12 72 1015 10 O 33.3
Ieri h: 20:20 nuvoloso Nuvoloso 16 11 72 1015 10 O 9.3
Ieri h: 19:50 nuvoloso Nuvoloso 17 12 72 1015 10 O 18.5
Ieri h: 19:20 nuvoloso Nuvoloso 17 12 72 1015 10 O 24
Ieri h: 18:50 nuvoloso Nuvoloso 17 12 72 1015 10 O 27.8
Ieri h: 18:20 molto_nuvoloso Molto Nuvoloso 17 11 67 1015 10 O 31.5
Ieri h: 17:50 nuvoloso Nuvoloso 17 11 67 1015 10 O 29.6
Ieri h: 17:20 molto_nuvoloso Molto Nuvoloso 17 12 72 1015 10 O/NO 25.9
Ieri h: 16:50 molto_nuvoloso Molto Nuvoloso 17 12 72 1015 10 O/NO 14.8
Ieri h: 16:20 molto_nuvoloso Molto Nuvoloso 17 12 72 1015 10 O/NO 13
Ieri h: 15:50 molto_nuvoloso Molto Nuvoloso 17 11 67 1015 10 NO 14.8
Ieri h: 15:20 nuvoloso Nuvoloso 17 20 0 1015 10 O/NO 16.7
Ieri h: 14:50 nuvoloso Nuvoloso 17 11 67 1015 10 O/NO 16.7
Ieri h: 14:20 poco_nuvoloso Poco Nuvoloso 17 10 63 1015 10 O/NO 14.8
Ieri h: 13:50 poco_nuvoloso Poco Nuvoloso 17 10 63 1015 10 O/NO 18.5
Ieri h: 13:20 poco_nuvoloso Poco Nuvoloso 17 10 63 1015 10 O/NO 18.5
Ieri h: 12:50 poco_nuvoloso Poco Nuvoloso 17 10 63 1016 10 O/NO 18.5
Ieri h: 12:20 poco_nuvoloso Poco Nuvoloso 17 10 63 1016 10 O/NO 14.8
Ieri h: 11:50 nuvoloso Nuvoloso 17 10 63 1016 10 O/NO 14.8